sensor_id;sensor_type;location;lat;lon;timestamp;P1;durP1;ratioP1;P2;durP2;ratioP2
9938;SDS011;5008;50.656;7.188;2023-04-06T04:02:46;7.80;;;6.40;;
9938;SDS011;5008;50.656;7.188;2023-04-06T04:05:13;7.43;;;6.33;;
9938;SDS011;5008;50.656;7.188;2023-04-06T04:07:40;7.80;;;6.63;;
9938;SDS011;5008;50.656;7.188;2023-04-06T04:10:07;7.73;;;6.40;;
9938;SDS011;5008;50.656;7.188;2023-04-06T04:12:34;8.23;;;6.00;;
9938;SDS011;5008;50.656;7.188;2023-04-06T04:15:01;8.07;;;6.80;;
9938;SDS011;5008;50.656;7.188;2023-04-06T04:17:28;8.87;;;6.33;;
9938;SDS011;5008;50.656;7.188;2023-04-06T04:19:57;9.33;;;6.17;;
9938;SDS011;5008;50.656;7.188;2023-04-06T04:22:24;7.60;;;6.23;;
9938;SDS011;5008;50.656;7.188;2023-04-06T04:24:52;7.60;;;6.43;;
9938;SDS011;5008;50.656;7.188;2023-04-06T04:27:19;7.07;;;6.30;;
9938;SDS011;5008;50.656;7.188;2023-04-06T04:29:46;7.60;;;6.27;;
9938;SDS011;5008;50.656;7.188;2023-04-06T04:32:13;7.07;;;6.30;;
9938;SDS011;5008;50.656;7.188;2023-04-06T04:34:41;7.03;;;6.23;;
9938;SDS011;5008;50.656;7.188;2023-04-06T04:37:09;7.03;;;5.70;;
9938;SDS011;5008;50.656;7.188;2023-04-06T04:39:36;7.60;;;5.70;;
9938;SDS011;5008;50.656;7.188;2023-04-06T04:42:03;7.70;;;6.27;;
9938;SDS011;5008;50.656;7.188;2023-04-06T04:44:30;10.27;;;6.87;;
9938;SDS011;5008;50.656;7.188;2023-04-06T04:46:57;7.87;;;6.50;;
9938;SDS011;5008;50.656;7.188;2023-04-06T04:49:24;9.13;;;6.70;;
9938;SDS011;5008;50.656;7.188;2023-04-06T04:51:52;7.33;;;6.43;;
9938;SDS011;5008;50.656;7.188;2023-04-06T04:54:20;8.23;;;6.27;;
9938;SDS011;5008;50.656;7.188;2023-04-06T04:56:47;9.53;;;7.17;;
9938;SDS011;5008;50.656;7.188;2023-04-06T04:59:15;8.73;;;6.87;;
9938;SDS011;5008;50.656;7.188;2023-04-06T05:01:42;8.33;;;6.47;;
9938;SDS011;5008;50.656;7.188;2023-04-06T05:04:09;7.57;;;6.60;;
9938;SDS011;5008;50.656;7.188;2023-04-06T05:06:37;7.03;;;6.30;;
9938;SDS011;5008;50.656;7.188;2023-04-06T05:09:04;8.77;;;6.83;;
9938;SDS011;5008;50.656;7.188;2023-04-06T05:11:32;7.80;;;7.00;;
9938;SDS011;5008;50.656;7.188;2023-04-06T05:13:59;8.50;;;7.07;;
9938;SDS011;5008;50.656;7.188;2023-04-06T05:16:26;7.03;;;6.33;;
9938;SDS011;5008;50.656;7.188;2023-04-06T05:18:53;8.50;;;6.20;;
9938;SDS011;5008;50.656;7.188;2023-04-06T05:21:21;9.73;;;6.90;;
9938;SDS011;5008;50.656;7.188;2023-04-06T05:23:48;11.33;;;6.87;;
9938;SDS011;5008;50.656;7.188;2023-04-06T05:26:15;7.90;;;7.03;;
9938;SDS011;5008;50.656;7.188;2023-04-06T05:28:43;7.93;;;6.57;;
9938;SDS011;5008;50.656;7.188;2023-04-06T05:31:11;7.80;;;6.87;;
9938;SDS011;5008;50.656;7.188;2023-04-06T05:33:37;7.43;;;6.67;;
9938;SDS011;5008;50.656;7.188;2023-04-06T05:36:05;11.87;;;7.37;;
9938;SDS011;5008;50.656;7.188;2023-04-06T05:38:32;8.20;;;6.77;;
9938;SDS011;5008;50.656;7.188;2023-04-06T05:40:59;8.40;;;6.90;;
9938;SDS011;5008;50.656;7.188;2023-04-06T05:43:26;7.50;;;6.80;;
9938;SDS011;5008;50.656;7.188;2023-04-06T05:45:54;9.80;;;7.23;;
9938;SDS011;5008;50.656;7.188;2023-04-06T05:48:21;8.33;;;7.00;;
9938;SDS011;5008;50.656;7.188;2023-04-06T05:50:48;7.90;;;6.87;;
9938;SDS011;5008;50.656;7.188;2023-04-06T05:53:15;9.60;;;6.80;;
9938;SDS011;5008;50.656;7.188;2023-04-06T05:55:42;8.40;;;7.20;;
9938;SDS011;5008;50.656;7.188;2023-04-06T05:58:09;9.07;;;7.37;;
9938;SDS011;5008;50.656;7.188;2023-04-06T06:00:36;8.43;;;7.07;;
9938;SDS011;5008;50.656;7.188;2023-04-06T06:03:04;8.10;;;6.83;;
9938;SDS011;5008;50.656;7.188;2023-04-06T06:05:33;9.47;;;7.17;;
9938;SDS011;5008;50.656;7.188;2023-04-06T06:08:00;8.37;;;6.70;;
9938;SDS011;5008;50.656;7.188;2023-04-06T06:10:27;9.40;;;7.60;;
9938;SDS011;5008;50.656;7.188;2023-04-06T06:12:54;8.47;;;7.10;;
9938;SDS011;5008;50.656;7.188;2023-04-06T06:15:21;9.23;;;7.50;;
9938;SDS011;5008;50.656;7.188;2023-04-06T06:17:48;8.97;;;7.33;;
9938;SDS011;5008;50.656;7.188;2023-04-06T06:20:17;9.77;;;7.87;;
9938;SDS011;5008;50.656;7.188;2023-04-06T06:22:43;8.67;;;7.30;;
9938;SDS011;5008;50.656;7.188;2023-04-06T06:25:10;10.40;;;7.80;;
9938;SDS011;5008;50.656;7.188;2023-04-06T06:27:38;8.70;;;7.83;;
9938;SDS011;5008;50.656;7.188;2023-04-06T06:30:05;10.70;;;7.90;;
9938;SDS011;5008;50.656;7.188;2023-04-06T06:32:44;11.40;;;7.73;;
9938;SDS011;5008;50.656;7.188;2023-04-06T06:35:11;11.20;;;7.97;;
9938;SDS011;5008;50.656;7.188;2023-04-06T06:37:39;10.23;;;7.30;;
9938;SDS011;5008;50.656;7.188;2023-04-06T06:40:08;11.10;;;7.33;;
9938;SDS011;5008;50.656;7.188;2023-04-06T06:42:38;8.47;;;7.67;;
9938;SDS011;5008;50.656;7.188;2023-04-06T06:45:05;8.63;;;7.43;;
9938;SDS011;5008;50.656;7.188;2023-04-06T06:47:33;9.10;;;7.20;;
9938;SDS011;5008;50.656;7.188;2023-04-06T06:50:00;8.73;;;7.27;;
9938;SDS011;5008;50.656;7.188;2023-04-06T06:52:28;9.57;;;7.67;;
9938;SDS011;5008;50.656;7.188;2023-04-06T06:54:56;11.63;;;7.93;;
9938;SDS011;5008;50.656;7.188;2023-04-06T06:57:23;9.87;;;7.87;;
9938;SDS011;5008;50.656;7.188;2023-04-06T06:59:50;9.07;;;7.50;;
9938;SDS011;5008;50.656;7.188;2023-04-06T07:02:17;10.67;;;7.63;;
9938;SDS011;5008;50.656;7.188;2023-04-06T07:04:49;8.20;;;7.40;;
9938;SDS011;5008;50.656;7.188;2023-04-06T07:07:16;9.57;;;7.60;;
9938;SDS011;5008;50.656;7.188;2023-04-06T07:09:44;10.10;;;7.70;;
9938;SDS011;5008;50.656;7.188;2023-04-06T07:12:12;8.13;;;7.33;;
9938;SDS011;5008;50.656;7.188;2023-04-06T07:14:39;8.97;;;7.63;;
9938;SDS011;5008;50.656;7.188;2023-04-06T07:17:06;8.30;;;7.27;;
9938;SDS011;5008;50.656;7.188;2023-04-06T07:19:34;7.57;;;6.87;;
9938;SDS011;5008;50.656;7.188;2023-04-06T07:22:01;7.83;;;7.03;;
9938;SDS011;5008;50.656;7.188;2023-04-06T07:24:29;9.07;;;7.17;;
9938;SDS011;5008;50.656;7.188;2023-04-06T07:26:57;7.83;;;7.10;;
9938;SDS011;5008;50.656;7.188;2023-04-06T07:29:28;7.60;;;6.80;;
9938;SDS011;5008;50.656;7.188;2023-04-06T07:31:55;8.97;;;6.73;;
9938;SDS011;5008;50.656;7.188;2023-04-06T07:34:22;8.67;;;7.30;;
9938;SDS011;5008;50.656;7.188;2023-04-06T07:36:49;8.00;;;7.20;;
9938;SDS011;5008;50.656;7.188;2023-04-06T07:39:17;10.37;;;6.90;;
9938;SDS011;5008;50.656;7.188;2023-04-06T07:41:44;8.07;;;6.63;;
9938;SDS011;5008;50.656;7.188;2023-04-06T07:44:11;8.07;;;6.50;;
9938;SDS011;5008;50.656;7.188;2023-04-06T07:46:40;7.57;;;6.87;;
9938;SDS011;5008;50.656;7.188;2023-04-06T07:49:07;9.87;;;5.63;;
9938;SDS011;5008;50.656;7.188;2023-04-06T07:51:35;7.97;;;6.43;;
9938;SDS011;5008;50.656;7.188;2023-04-06T07:54:02;8.67;;;6.80;;
9938;SDS011;5008;50.656;7.188;2023-04-06T07:56:30;6.37;;;5.73;;
9938;SDS011;5008;50.656;7.188;2023-04-06T07:58:58;6.80;;;5.83;;
9938;SDS011;5008;50.656;7.188;2023-04-06T08:01:25;8.07;;;6.30;;
9938;SDS011;5008;50.656;7.188;2023-04-06T08:03:56;7.00;;;6.30;;
9938;SDS011;5008;50.656;7.188;2023-04-06T08:06:26;7.43;;;6.40;;
9938;SDS011;5008;50.656;7.188;2023-04-06T08:08:53;7.67;;;6.33;;
9938;SDS011;5008;50.656;7.188;2023-04-06T08:11:21;6.80;;;6.10;;
9938;SDS011;5008;50.656;7.188;2023-04-06T08:13:48;7.70;;;5.70;;
9938;SDS011;5008;50.656;7.188;2023-04-06T08:16:15;10.10;;;7.20;;
9938;SDS011;5008;50.656;7.188;2023-04-06T08:18:42;7.93;;;7.13;;
9938;SDS011;5008;50.656;7.188;2023-04-06T08:21:12;7.33;;;6.10;;
9938;SDS011;5008;50.656;7.188;2023-04-06T08:23:39;8.23;;;7.27;;
9938;SDS011;5008;50.656;7.188;2023-04-06T08:26:06;8.53;;;7.03;;
9938;SDS011;5008;50.656;7.188;2023-04-06T08:28:34;8.47;;;7.20;;
9938;SDS011;5008;50.656;7.188;2023-04-06T08:31:05;9.83;;;6.60;;
9938;SDS011;5008;50.656;7.188;2023-04-06T08:33:34;7.73;;;6.40;;
9938;SDS011;5008;50.656;7.188;2023-04-06T08:36:07;8.40;;;7.13;;
9938;SDS011;5008;50.656;7.188;2023-04-06T08:38:37;8.60;;;7.17;;
9938;SDS011;5008;50.656;7.188;2023-04-06T08:41:08;6.67;;;5.43;;
9938;SDS011;5008;50.656;7.188;2023-04-06T08:43:37;6.73;;;5.90;;
9938;SDS011;5008;50.656;7.188;2023-04-06T08:46:10;6.03;;;4.60;;
9938;SDS011;5008;50.656;7.188;2023-04-06T08:48:38;5.70;;;4.73;;
9938;SDS011;5008;50.656;7.188;2023-04-06T08:51:06;10.87;;;6.20;;
9938;SDS011;5008;50.656;7.188;2023-04-06T08:53:33;5.67;;;4.67;;
9938;SDS011;5008;50.656;7.188;2023-04-06T08:56:03;9.60;;;6.33;;
9938;SDS011;5008;50.656;7.188;2023-04-06T08:58:32;6.93;;;5.30;;
9938;SDS011;5008;50.656;7.188;2023-04-06T09:01:02;7.63;;;5.03;;
9938;SDS011;5008;50.656;7.188;2023-04-06T09:03:30;6.13;;;4.50;;
9938;SDS011;5008;50.656;7.188;2023-04-06T09:06:00;5.40;;;4.90;;
9938;SDS011;5008;50.656;7.188;2023-04-06T09:08:29;6.73;;;5.50;;
9938;SDS011;5008;50.656;7.188;2023-04-06T09:10:56;7.10;;;5.50;;
9938;SDS011;5008;50.656;7.188;2023-04-06T09:13:24;6.73;;;5.93;;
9938;SDS011;5008;50.656;7.188;2023-04-06T09:15:58;8.40;;;5.37;;
9938;SDS011;5008;50.656;7.188;2023-04-06T09:18:29;6.93;;;6.13;;
9938;SDS011;5008;50.656;7.188;2023-04-06T09:20:58;6.03;;;5.43;;
9938;SDS011;5008;50.656;7.188;2023-04-06T09:23:26;7.07;;;5.67;;
9938;SDS011;5008;50.656;7.188;2023-04-06T09:26:03;9.93;;;7.60;;
9938;SDS011;5008;50.656;7.188;2023-04-06T09:28:41;8.37;;;6.77;;
9938;SDS011;5008;50.656;7.188;2023-04-06T09:31:09;10.23;;;7.43;;
9938;SDS011;5008;50.656;7.188;2023-04-06T09:33:37;8.90;;;7.20;;
9938;SDS011;5008;50.656;7.188;2023-04-06T09:36:05;7.87;;;6.90;;
9938;SDS011;5008;50.656;7.188;2023-04-06T09:38:32;8.47;;;6.80;;
9938;SDS011;5008;50.656;7.188;2023-04-06T09:40:59;8.63;;;7.17;;
9938;SDS011;5008;50.656;7.188;2023-04-06T09:43:26;8.87;;;7.27;;
9938;SDS011;5008;50.656;7.188;2023-04-06T09:45:55;8.87;;;7.03;;
9938;SDS011;5008;50.656;7.188;2023-04-06T09:48:22;9.37;;;7.00;;
9938;SDS011;5008;50.656;7.188;2023-04-06T09:50:51;10.37;;;7.97;;
9938;SDS011;5008;50.656;7.188;2023-04-06T09:53:23;12.30;;;7.83;;
9938;SDS011;5008;50.656;7.188;2023-04-06T09:55:52;10.73;;;7.63;;
9938;SDS011;5008;50.656;7.188;2023-04-06T09:58:28;8.20;;;6.97;;
9938;SDS011;5008;50.656;7.188;2023-04-06T10:01:04;8.93;;;7.23;;
9938;SDS011;5008;50.656;7.188;2023-04-06T10:03:36;9.43;;;7.83;;
9938;SDS011;5008;50.656;7.188;2023-04-06T10:06:11;11.40;;;7.33;;
9938;SDS011;5008;50.656;7.188;2023-04-06T10:08:41;10.00;;;7.97;;
9938;SDS011;5008;50.656;7.188;2023-04-06T10:11:11;9.60;;;7.70;;
9938;SDS011;5008;50.656;7.188;2023-04-06T10:13:38;10.30;;;7.23;;
9938;SDS011;5008;50.656;7.188;2023-04-06T10:18:34;10.10;;;7.73;;
9938;SDS011;5008;50.656;7.188;2023-04-06T10:21:04;10.73;;;7.47;;
9938;SDS011;5008;50.656;7.188;2023-04-06T10:23:33;9.93;;;7.60;;
9938;SDS011;5008;50.656;7.188;2023-04-06T10:26:02;9.50;;;7.50;;
9938;SDS011;5008;50.656;7.188;2023-04-06T10:28:30;8.63;;;6.50;;
9938;SDS011;5008;50.656;7.188;2023-04-06T10:30:59;10.23;;;7.30;;
9938;SDS011;5008;50.656;7.188;2023-04-06T10:33:27;9.30;;;7.00;;
9938;SDS011;5008;50.656;7.188;2023-04-06T10:35:56;9.43;;;6.60;;
9938;SDS011;5008;50.656;7.188;2023-04-06T10:38:32;10.27;;;7.43;;
9938;SDS011;5008;50.656;7.188;2023-04-06T10:41:03;8.63;;;6.30;;
9938;SDS011;5008;50.656;7.188;2023-04-06T10:43:32;10.03;;;7.80;;
9938;SDS011;5008;50.656;7.188;2023-04-06T10:46:00;10.27;;;7.13;;
9938;SDS011;5008;50.656;7.188;2023-04-06T10:48:35;10.00;;;7.03;;
9938;SDS011;5008;50.656;7.188;2023-04-06T10:51:08;9.33;;;7.03;;
9938;SDS011;5008;50.656;7.188;2023-04-06T10:53:38;10.10;;;7.23;;
9938;SDS011;5008;50.656;7.188;2023-04-06T10:56:09;10.90;;;7.10;;
9938;SDS011;5008;50.656;7.188;2023-04-06T10:58:37;10.23;;;7.33;;
9938;SDS011;5008;50.656;7.188;2023-04-06T11:01:04;10.50;;;7.17;;
9938;SDS011;5008;50.656;7.188;2023-04-06T11:03:31;10.33;;;7.17;;
9938;SDS011;5008;50.656;7.188;2023-04-06T11:05:59;9.90;;;6.70;;
9938;SDS011;5008;50.656;7.188;2023-04-06T11:08:28;10.63;;;7.63;;
9938;SDS011;5008;50.656;7.188;2023-04-06T11:11:05;10.53;;;7.27;;
9938;SDS011;5008;50.656;7.188;2023-04-06T11:13:37;8.00;;;6.70;;
9938;SDS011;5008;50.656;7.188;2023-04-06T11:16:05;10.43;;;7.70;;
9938;SDS011;5008;50.656;7.188;2023-04-06T11:18:32;10.57;;;7.60;;
9938;SDS011;5008;50.656;7.188;2023-04-06T11:20:59;9.70;;;6.93;;
9938;SDS011;5008;50.656;7.188;2023-04-06T11:23:27;10.10;;;7.03;;
9938;SDS011;5008;50.656;7.188;2023-04-06T11:25:53;9.33;;;7.30;;
9938;SDS011;5008;50.656;7.188;2023-04-06T11:28:20;11.33;;;7.30;;
9938;SDS011;5008;50.656;7.188;2023-04-06T11:30:47;9.60;;;7.53;;
9938;SDS011;5008;50.656;7.188;2023-04-06T11:33:19;9.93;;;7.50;;
9938;SDS011;5008;50.656;7.188;2023-04-06T11:35:47;10.80;;;7.43;;
9938;SDS011;5008;50.656;7.188;2023-04-06T11:38:14;10.57;;;7.40;;
9938;SDS011;5008;50.656;7.188;2023-04-06T11:40:42;10.27;;;7.07;;
9938;SDS011;5008;50.656;7.188;2023-04-06T11:43:10;10.23;;;7.47;;
9938;SDS011;5008;50.656;7.188;2023-04-06T11:45:41;8.93;;;6.88;;
9938;SDS011;5008;50.656;7.188;2023-04-06T11:48:17;9.40;;;7.55;;
9938;SDS011;5008;50.656;7.188;2023-04-06T11:50:46;10.03;;;7.53;;
9938;SDS011;5008;50.656;7.188;2023-04-06T11:53:13;9.55;;;7.50;;
9938;SDS011;5008;50.656;7.188;2023-04-06T11:55:41;8.80;;;7.40;;
9938;SDS011;5008;50.656;7.188;2023-04-06T11:58:11;8.80;;;7.47;;
9938;SDS011;5008;50.656;7.188;2023-04-06T12:00:38;11.53;;;8.57;;
9938;SDS011;5008;50.656;7.188;2023-04-06T12:03:09;11.40;;;8.43;;
9938;SDS011;5008;50.656;7.188;2023-04-06T12:05:36;10.73;;;8.43;;
9938;SDS011;5008;50.656;7.188;2023-04-06T12:08:03;10.80;;;7.37;;
9938;SDS011;5008;50.656;7.188;2023-04-06T12:10:30;9.98;;;8.18;;
9938;SDS011;5008;50.656;7.188;2023-04-06T12:12:58;8.80;;;7.65;;
9938;SDS011;5008;50.656;7.188;2023-04-06T12:15:25;10.17;;;7.70;;
9938;SDS011;5008;50.656;7.188;2023-04-06T12:17:52;9.80;;;7.20;;
9938;SDS011;5008;50.656;7.188;2023-04-06T12:20:18;11.60;;;8.07;;
9938;SDS011;5008;50.656;7.188;2023-04-06T12:22:45;10.00;;;7.18;;
9938;SDS011;5008;50.656;7.188;2023-04-06T12:25:12;11.18;;;7.40;;
9938;SDS011;5008;50.656;7.188;2023-04-06T12:27:39;8.18;;;6.80;;
9938;SDS011;5008;50.656;7.188;2023-04-06T12:30:08;6.70;;;6.00;;
9938;SDS011;5008;50.656;7.188;2023-04-06T12:32:35;6.82;;;6.00;;
9938;SDS011;5008;50.656;7.188;2023-04-06T12:35:02;9.50;;;6.55;;
9938;SDS011;5008;50.656;7.188;2023-04-06T12:37:30;8.23;;;6.78;;
9938;SDS011;5008;50.656;7.188;2023-04-06T12:39:56;9.32;;;6.10;;
9938;SDS011;5008;50.656;7.188;2023-04-06T12:42:23;7.60;;;6.43;;
9938;SDS011;5008;50.656;7.188;2023-04-06T12:44:50;6.95;;;6.00;;
9938;SDS011;5008;50.656;7.188;2023-04-06T12:47:18;7.28;;;6.07;;
9938;SDS011;5008;50.656;7.188;2023-04-06T12:49:46;6.15;;;5.22;;
9938;SDS011;5008;50.656;7.188;2023-04-06T12:52:12;5.68;;;4.80;;
9938;SDS011;5008;50.656;7.188;2023-04-06T12:54:39;7.03;;;5.72;;
9938;SDS011;5008;50.656;7.188;2023-04-06T12:57:07;7.15;;;5.22;;
9938;SDS011;5008;50.656;7.188;2023-04-06T12:59:35;5.70;;;5.10;;
9938;SDS011;5008;50.656;7.188;2023-04-06T13:02:03;6.63;;;5.78;;
9938;SDS011;5008;50.656;7.188;2023-04-06T13:04:31;6.20;;;5.40;;
9938;SDS011;5008;50.656;7.188;2023-04-06T13:06:58;7.50;;;5.70;;
9938;SDS011;5008;50.656;7.188;2023-04-06T13:09:25;8.93;;;6.18;;
9938;SDS011;5008;50.656;7.188;2023-04-06T13:11:52;6.15;;;5.47;;
9938;SDS011;5008;50.656;7.188;2023-04-06T13:14:18;7.30;;;5.20;;
9938;SDS011;5008;50.656;7.188;2023-04-06T13:16:45;9.88;;;6.50;;
9938;SDS011;5008;50.656;7.188;2023-04-06T13:19:12;6.90;;;6.20;;
9938;SDS011;5008;50.656;7.188;2023-04-06T13:21:41;6.63;;;5.93;;
9938;SDS011;5008;50.656;7.188;2023-04-06T13:24:07;6.40;;;5.70;;
9938;SDS011;5008;50.656;7.188;2023-04-06T13:26:35;6.03;;;5.43;;
9938;SDS011;5008;50.656;7.188;2023-04-06T13:29:02;5.47;;;4.77;;
9938;SDS011;5008;50.656;7.188;2023-04-06T13:31:28;5.33;;;4.50;;
9938;SDS011;5008;50.656;7.188;2023-04-06T13:33:56;4.70;;;4.20;;
9938;SDS011;5008;50.656;7.188;2023-04-06T13:36:23;4.13;;;3.60;;
9938;SDS011;5008;50.656;7.188;2023-04-06T13:38:51;3.90;;;3.60;;
9938;SDS011;5008;50.656;7.188;2023-04-06T13:41:19;4.37;;;3.20;;
9938;SDS011;5008;50.656;7.188;2023-04-06T13:43:46;4.17;;;3.77;;
9938;SDS011;5008;50.656;7.188;2023-04-06T13:46:13;5.37;;;4.63;;
9938;SDS011;5008;50.656;7.188;2023-04-06T13:48:40;5.10;;;4.50;;
9938;SDS011;5008;50.656;7.188;2023-04-06T13:51:07;5.23;;;4.67;;
9938;SDS011;5008;50.656;7.188;2023-04-06T13:53:34;4.60;;;4.20;;
9938;SDS011;5008;50.656;7.188;2023-04-06T13:56:03;5.17;;;3.93;;
9938;SDS011;5008;50.656;7.188;2023-04-06T13:58:30;7.57;;;3.93;;
9938;SDS011;5008;50.656;7.188;2023-04-06T14:01:01;5.47;;;3.70;;
9938;SDS011;5008;50.656;7.188;2023-04-06T14:03:28;4.73;;;4.13;;
9938;SDS011;5008;50.656;7.188;2023-04-06T14:05:55;3.87;;;3.50;;
9938;SDS011;5008;50.656;7.188;2023-04-06T14:08:22;4.03;;;3.70;;
9938;SDS011;5008;50.656;7.188;2023-04-06T14:10:49;4.37;;;3.83;;
9938;SDS011;5008;50.656;7.188;2023-04-06T14:13:17;6.57;;;4.10;;
9938;SDS011;5008;50.656;7.188;2023-04-06T14:15:44;5.50;;;4.57;;
9938;SDS011;5008;50.656;7.188;2023-04-06T14:18:11;5.10;;;4.60;;
9938;SDS011;5008;50.656;7.188;2023-04-06T14:20:37;6.10;;;4.93;;
9938;SDS011;5008;50.656;7.188;2023-04-06T14:23:04;6.57;;;5.10;;
9938;SDS011;5008;50.656;7.188;2023-04-06T14:25:31;6.57;;;5.50;;
9938;SDS011;5008;50.656;7.188;2023-04-06T14:27:59;6.23;;;5.30;;
9938;SDS011;5008;50.656;7.188;2023-04-06T14:30:27;7.40;;;5.50;;
9938;SDS011;5008;50.656;7.188;2023-04-06T14:32:56;5.90;;;5.30;;
9938;SDS011;5008;50.656;7.188;2023-04-06T14:35:24;7.37;;;5.60;;
9938;SDS011;5008;50.656;7.188;2023-04-06T14:37:53;6.47;;;5.40;;
9938;SDS011;5008;50.656;7.188;2023-04-06T14:40:19;6.03;;;5.37;;
9938;SDS011;5008;50.656;7.188;2023-04-06T14:42:46;5.87;;;5.23;;
9938;SDS011;5008;50.656;7.188;2023-04-06T14:45:13;6.60;;;5.13;;
9938;SDS011;5008;50.656;7.188;2023-04-06T14:47:41;5.97;;;4.60;;
9938;SDS011;5008;50.656;7.188;2023-04-06T14:50:09;6.93;;;4.57;;
9938;SDS011;5008;50.656;7.188;2023-04-06T14:52:36;4.10;;;3.80;;
9938;SDS011;5008;50.656;7.188;2023-04-06T14:55:03;4.63;;;4.17;;
9938;SDS011;5008;50.656;7.188;2023-04-06T14:57:30;5.07;;;4.43;;
9938;SDS011;5008;50.656;7.188;2023-04-06T14:59:57;4.63;;;4.20;;
9938;SDS011;5008;50.656;7.188;2023-04-06T15:02:24;6.10;;;4.77;;
9938;SDS011;5008;50.656;7.188;2023-04-06T15:04:52;5.23;;;4.33;;
9938;SDS011;5008;50.656;7.188;2023-04-06T15:07:19;5.67;;;5.00;;
9938;SDS011;5008;50.656;7.188;2023-04-06T15:09:46;4.67;;;4.20;;
9938;SDS011;5008;50.656;7.188;2023-04-06T15:12:13;4.23;;;3.83;;
9938;SDS011;5008;50.656;7.188;2023-04-06T15:14:39;5.47;;;4.67;;
9938;SDS011;5008;50.656;7.188;2023-04-06T15:17:06;4.63;;;4.20;;
9938;SDS011;5008;50.656;7.188;2023-04-06T15:19:33;5.40;;;4.13;;
9938;SDS011;5008;50.656;7.188;2023-04-06T15:22:01;4.60;;;4.10;;
9938;SDS011;5008;50.656;7.188;2023-04-06T15:24:28;4.50;;;4.10;;
9938;SDS011;5008;50.656;7.188;2023-04-06T15:26:55;6.50;;;4.70;;
9938;SDS011;5008;50.656;7.188;2023-04-06T15:29:21;4.90;;;4.37;;
9938;SDS011;5008;50.656;7.188;2023-04-06T15:31:48;4.73;;;4.20;;
9938;SDS011;5008;50.656;7.188;2023-04-06T15:34:22;5.40;;;4.90;;
9938;SDS011;5008;50.656;7.188;2023-04-06T15:36:49;4.90;;;4.40;;
9938;SDS011;5008;50.656;7.188;2023-04-06T15:39:19;4.57;;;3.97;;
9938;SDS011;5008;50.656;7.188;2023-04-06T15:41:45;4.90;;;4.03;;
9938;SDS011;5008;50.656;7.188;2023-04-06T15:44:12;5.60;;;3.90;;
9938;SDS011;5008;50.656;7.188;2023-04-06T15:46:39;5.07;;;3.97;;
9938;SDS011;5008;50.656;7.188;2023-04-06T15:51:43;5.07;;;3.90;;
9938;SDS011;5008;50.656;7.188;2023-04-06T15:54:12;5.13;;;4.53;;
9938;SDS011;5008;50.656;7.188;2023-04-06T15:56:40;5.37;;;4.13;;
9938;SDS011;5008;50.656;7.188;2023-04-06T15:59:09;4.67;;;4.17;;
9938;SDS011;5008;50.656;7.188;2023-04-06T16:01:35;5.43;;;4.80;;
9938;SDS011;5008;50.656;7.188;2023-04-06T16:04:05;5.80;;;5.00;;
9938;SDS011;5008;50.656;7.188;2023-04-06T16:06:32;5.87;;;5.07;;
9938;SDS011;5008;50.656;7.188;2023-04-06T16:08:59;5.17;;;4.67;;
9938;SDS011;5008;50.656;7.188;2023-04-06T16:11:29;5.50;;;5.00;;
9938;SDS011;5008;50.656;7.188;2023-04-06T16:13:59;6.10;;;5.03;;
9938;SDS011;5008;50.656;7.188;2023-04-06T16:16:25;6.07;;;5.47;;
9938;SDS011;5008;50.656;7.188;2023-04-06T16:18:52;5.97;;;5.37;;
9938;SDS011;5008;50.656;7.188;2023-04-06T16:21:19;6.63;;;5.90;;
9938;SDS011;5008;50.656;7.188;2023-04-06T16:23:47;6.63;;;5.97;;
9938;SDS011;5008;50.656;7.188;2023-04-06T16:26:14;6.50;;;5.80;;
9938;SDS011;5008;50.656;7.188;2023-04-06T16:28:42;6.63;;;6.00;;
9938;SDS011;5008;50.656;7.188;2023-04-06T16:31:17;6.63;;;5.93;;
9938;SDS011;5008;50.656;7.188;2023-04-06T16:33:45;6.43;;;5.83;;
9938;SDS011;5008;50.656;7.188;2023-04-06T16:36:12;7.10;;;6.33;;
9938;SDS011;5008;50.656;7.188;2023-04-06T16:38:39;6.30;;;5.57;;
9938;SDS011;5008;50.656;7.188;2023-04-06T16:41:06;8.10;;;7.30;;
9938;SDS011;5008;50.656;7.188;2023-04-06T16:43:33;7.60;;;6.87;;
9938;SDS011;5008;50.656;7.188;2023-04-06T16:46:00;7.13;;;6.43;;
9938;SDS011;5008;50.656;7.188;2023-04-06T16:48:28;8.03;;;7.03;;
9938;SDS011;5008;50.656;7.188;2023-04-06T16:50:55;7.70;;;6.90;;
9938;SDS011;5008;50.656;7.188;2023-04-06T16:53:22;8.63;;;6.73;;
9938;SDS011;5008;50.656;7.188;2023-04-06T16:55:49;8.50;;;7.20;;
9938;SDS011;5008;50.656;7.188;2023-04-06T16:58:16;7.37;;;6.67;;
9938;SDS011;5008;50.656;7.188;2023-04-06T17:00:42;8.03;;;6.97;;
9938;SDS011;5008;50.656;7.188;2023-04-06T17:03:09;7.20;;;6.50;;
9938;SDS011;5008;50.656;7.188;2023-04-06T17:05:37;7.97;;;7.17;;
9938;SDS011;5008;50.656;7.188;2023-04-06T17:08:04;8.50;;;7.70;;
9938;SDS011;5008;50.656;7.188;2023-04-06T17:10:31;8.10;;;7.30;;
9938;SDS011;5008;50.656;7.188;2023-04-06T17:12:58;9.17;;;8.13;;
9938;SDS011;5008;50.656;7.188;2023-04-06T17:15:25;8.57;;;7.77;;
9938;SDS011;5008;50.656;7.188;2023-04-06T17:18:02;9.47;;;7.70;;
9938;SDS011;5008;50.656;7.188;2023-04-06T17:20:29;8.77;;;7.97;;
9938;SDS011;5008;50.656;7.188;2023-04-06T17:22:57;9.27;;;8.27;;
9938;SDS011;5008;50.656;7.188;2023-04-06T17:25:24;8.67;;;7.87;;
9938;SDS011;5008;50.656;7.188;2023-04-06T17:27:51;8.60;;;7.70;;
9938;SDS011;5008;50.656;7.188;2023-04-06T17:30:18;10.10;;;7.77;;
9938;SDS011;5008;50.656;7.188;2023-04-06T17:32:45;9.30;;;8.33;;
9938;SDS011;5008;50.656;7.188;2023-04-06T17:35:12;8.80;;;7.60;;
9938;SDS011;5008;50.656;7.188;2023-04-06T17:37:39;9.73;;;7.67;;
9938;SDS011;5008;50.656;7.188;2023-04-06T17:40:10;9.53;;;7.87;;
9938;SDS011;5008;50.656;7.188;2023-04-06T17:42:37;9.83;;;8.07;;
9938;SDS011;5008;50.656;7.188;2023-04-06T17:45:04;8.63;;;7.70;;
9938;SDS011;5008;50.656;7.188;2023-04-06T17:47:31;8.83;;;7.97;;
9938;SDS011;5008;50.656;7.188;2023-04-06T17:49:58;8.40;;;7.57;;
9938;SDS011;5008;50.656;7.188;2023-04-06T17:52:26;7.90;;;7.10;;
9938;SDS011;5008;50.656;7.188;2023-04-06T17:54:53;7.87;;;7.17;;
9938;SDS011;5008;50.656;7.188;2023-04-06T17:57:21;8.90;;;8.00;;
9938;SDS011;5008;50.656;7.188;2023-04-06T17:59:48;9.43;;;8.43;;
9938;SDS011;5008;50.656;7.188;2023-04-06T18:02:15;8.20;;;7.37;;
9938;SDS011;5008;50.656;7.188;2023-04-06T18:04:43;8.53;;;7.73;;
9938;SDS011;5008;50.656;7.188;2023-04-06T18:07:10;9.23;;;8.33;;
9938;SDS011;5008;50.656;7.188;2023-04-06T18:09:37;8.73;;;7.83;;
9938;SDS011;5008;50.656;7.188;2023-04-06T18:12:04;9.20;;;7.93;;
9938;SDS011;5008;50.656;7.188;2023-04-06T18:14:33;9.50;;;8.60;;
9938;SDS011;5008;50.656;7.188;2023-04-06T18:17:07;9.60;;;8.63;;
9938;SDS011;5008;50.656;7.188;2023-04-06T18:19:34;11.03;;;8.67;;
9938;SDS011;5008;50.656;7.188;2023-04-06T18:22:00;9.87;;;8.83;;
9938;SDS011;5008;50.656;7.188;2023-04-06T18:24:27;8.60;;;7.73;;
9938;SDS011;5008;50.656;7.188;2023-04-06T18:26:54;10.07;;;9.00;;
9938;SDS011;5008;50.656;7.188;2023-04-06T18:29:21;9.47;;;8.40;;
9938;SDS011;5008;50.656;7.188;2023-04-06T18:31:49;9.87;;;8.37;;
9938;SDS011;5008;50.656;7.188;2023-04-06T18:34:18;9.47;;;8.57;;
9938;SDS011;5008;50.656;7.188;2023-04-06T18:36:45;11.17;;;10.07;;
9938;SDS011;5008;50.656;7.188;2023-04-06T18:39:12;10.73;;;9.57;;
9938;SDS011;5008;50.656;7.188;2023-04-06T18:41:39;10.63;;;9.53;;
9938;SDS011;5008;50.656;7.188;2023-04-06T18:44:06;11.53;;;9.73;;
9938;SDS011;5008;50.656;7.188;2023-04-06T18:46:33;9.97;;;8.97;;
9938;SDS011;5008;50.656;7.188;2023-04-06T18:49:03;11.40;;;9.30;;
9938;SDS011;5008;50.656;7.188;2023-04-06T18:51:30;11.03;;;9.93;;
9938;SDS011;5008;50.656;7.188;2023-04-06T18:53:56;10.63;;;9.57;;
9938;SDS011;5008;50.656;7.188;2023-04-06T18:56:25;11.10;;;9.70;;
9938;SDS011;5008;50.656;7.188;2023-04-06T18:58:52;11.17;;;9.97;;
9938;SDS011;5008;50.656;7.188;2023-04-06T19:01:19;10.97;;;9.67;;
9938;SDS011;5008;50.656;7.188;2023-04-06T19:03:46;10.37;;;9.30;;
9938;SDS011;5008;50.656;7.188;2023-04-06T19:06:21;11.83;;;9.43;;
9938;SDS011;5008;50.656;7.188;2023-04-06T19:08:48;9.80;;;8.83;;
9938;SDS011;5008;50.656;7.188;2023-04-06T19:11:15;10.40;;;8.90;;
9938;SDS011;5008;50.656;7.188;2023-04-06T19:13:42;10.13;;;9.13;;
9938;SDS011;5008;50.656;7.188;2023-04-06T19:16:23;11.17;;;8.60;;
9938;SDS011;5008;50.656;7.188;2023-04-06T19:18:50;9.63;;;8.57;;
9938;SDS011;5008;50.656;7.188;2023-04-06T19:21:18;10.30;;;8.70;;
9938;SDS011;5008;50.656;7.188;2023-04-06T19:23:47;8.60;;;7.70;;